Time;durP1;ratioP1;P1;durP2;ratioP2;P2;SDS_P1;SDS_P2;PMS_P1;PMS_P2;Temp;Humidity;BMP_temperature;BMP_pressure;BME280_temperature;BME280_humidity;BME280_pressure;Samples;Min_cycle;Max_cycle;Signal;HPM_P1;HPM_P2
2022/06/24 00:00:39;;;;;;;17.83;9.20;;;19.40;99.90;;;;;;5073944;28;20016;-54
2022/06/24 00:03:06;;;;;;;9.80;8.07;;;19.40;99.90;;;;;;5073757;28;20033;-54
2022/06/24 00:05:34;;;;;;;15.75;8.32;;;19.40;99.90;;;;;;5074326;28;20459;-55
2022/06/24 00:08:01;;;;;;;14.70;9.10;;;19.40;99.90;;;;;;5073876;28;20028;-54
2022/06/24 00:10:34;;;;;;;12.32;8.80;;;19.50;99.90;;;;;;5074288;28;20025;-55
2022/06/24 00:13:00;;;;;;;14.40;9.57;;;19.50;99.90;;;;;;5073715;28;20438;-54
2022/06/24 00:15:28;;;;;;;14.75;9.75;;;19.40;99.90;;;;;;5074092;28;20474;-55
2022/06/24 00:17:55;;;;;;;17.77;9.80;;;19.40;99.90;;;;;;5074087;28;20044;-54
2022/06/24 00:20:22;;;;;;;14.50;9.35;;;19.30;99.90;;;;;;5074477;28;20021;-54
2022/06/24 00:22:52;;;;;;;14.10;9.30;;;19.30;99.90;;;;;;5073865;28;20448;-55
2022/06/24 00:25:23;;;;;;;16.20;9.23;;;19.30;99.90;;;;;;5074023;28;20480;-55
2022/06/24 00:28:09;;;;;;;14.05;9.63;;;19.30;99.90;;;;;;5073964;28;20032;-55
2022/06/24 00:30:39;;;;;;;16.75;9.18;;;19.40;99.90;;;;;;5072673;28;20044;-54
2022/06/24 00:33:15;;;;;;;13.83;9.97;;;19.40;99.90;;;;;;5073803;28;20037;-55
2022/06/24 00:35:47;;;;;;;15.07;9.70;;;19.40;99.90;;;;;;5073829;28;20262;-54
2022/06/24 00:38:25;;;;;;;13.35;9.48;;;19.30;99.90;;;;;;5073579;28;20029;-54
2022/06/24 00:41:04;;;;;;;16.45;10.32;;;19.30;99.90;;;;;;5074124;28;20021;-54
2022/06/24 00:43:36;;;;;;;12.93;9.70;;;19.30;99.90;;;;;;5073800;28;20032;-54
2022/06/24 00:46:24;;;;;;;14.20;9.95;;;19.10;99.90;;;;;;5073921;28;20107;-54
2022/06/24 00:48:57;;;;;;;14.52;10.30;;;19.20;99.90;;;;;;5073862;28;20033;-55
2022/06/24 00:51:32;;;;;;;12.50;9.75;;;19.30;99.90;;;;;;5073427;28;20047;-54
2022/06/24 00:54:05;;;;;;;14.45;9.43;;;19.30;99.90;;;;;;5073393;28;20147;-55
2022/06/24 00:56:32;;;;;;;14.25;9.73;;;19.30;99.90;;;;;;5073848;28;20021;-55
2022/06/24 00:59:00;;;;;;;14.70;9.32;;;19.30;99.90;;;;;;5073227;28;20039;-55
2022/06/24 01:01:49;;;;;;;18.52;9.18;;;19.20;99.90;;;;;;5073648;28;20394;-54
2022/06/24 01:04:15;;;;;;;16.70;9.65;;;19.00;99.90;;;;;;5073155;28;20111;-54
2022/06/24 01:06:42;;;;;;;10.93;8.95;;;19.00;99.90;;;;;;5073927;28;20035;-54
2022/06/24 01:09:09;;;;;;;16.27;9.73;;;19.20;99.90;;;;;;5073404;28;20424;-54
2022/06/24 01:11:37;;;;;;;17.92;10.00;;;19.10;99.90;;;;;;5088958;28;20036;-54
2022/06/24 01:14:03;;;;;;;15.00;9.30;;;19.10;99.90;;;;;;5073278;28;20035;-55
2022/06/24 01:16:30;;;;;;;14.20;8.80;;;18.90;99.90;;;;;;5073649;28;20056;-54
2022/06/24 01:18:58;;;;;;;13.98;9.52;;;18.90;99.90;;;;;;5073202;28;20025;-54
2022/06/24 01:21:34;;;;;;;11.45;7.78;;;18.80;99.90;;;;;;5073582;28;20028;-55
2022/06/24 01:24:08;;;;;;;11.55;7.82;;;18.90;99.90;;;;;;5073304;28;20436;-55
2022/06/24 01:26:42;;;;;;;10.27;8.05;;;19.00;99.90;;;;;;5073167;28;20040;-55
2022/06/24 01:29:08;;;;;;;10.32;8.43;;;18.80;99.90;;;;;;5076610;28;20063;-54
2022/06/24 01:31:34;;;;;;;11.73;8.52;;;19.00;99.90;;;;;;5077139;28;20042;-54
2022/06/24 01:34:00;;;;;;;13.43;7.82;;;19.00;99.90;;;;;;5076725;28;20020;-55
2022/06/24 01:36:26;;;;;;;11.55;7.93;;;19.00;99.90;;;;;;5076830;28;20024;-55
2022/06/24 01:38:53;;;;;;;11.85;7.90;;;19.00;99.90;;;;;;5076675;28;20105;-54
2022/06/24 01:41:19;;;;;;;10.98;8.95;;;18.90;99.90;;;;;;5076672;28;20025;-54
2022/06/24 01:43:45;;;;;;;13.00;8.77;;;19.00;99.90;;;;;;5076898;28;20045;-55
2022/06/24 01:46:13;;;;;;;10.82;8.32;;;18.80;99.90;;;;;;5076419;28;20029;-55
2022/06/24 01:48:40;;;;;;;13.18;8.95;;;18.90;99.90;;;;;;5076696;28;20036;-54
2022/06/24 01:51:08;;;;;;;10.77;8.07;;;18.90;99.90;;;;;;5076473;28;20033;-55
2022/06/24 01:53:34;;;;;;;11.23;8.38;;;18.90;99.90;;;;;;5076413;28;20045;-55
2022/06/24 01:56:00;;;;;;;19.65;9.57;;;18.80;99.90;;;;;;5076447;28;20021;-55
2022/06/24 01:58:26;;;;;;;22.55;10.80;;;18.90;99.90;;;;;;5076593;28;20029;-55
2022/06/24 02:00:52;;;;;;;17.75;10.00;;;18.90;99.90;;;;;;5076185;28;20386;-55
2022/06/24 02:03:18;;;;;;;21.58;10.48;;;18.80;99.90;;;;;;5076273;28;20422;-55
2022/06/24 02:05:46;;;;;;;20.33;9.23;;;18.70;99.90;;;;;;5076343;28;20052;-55
2022/06/24 02:08:12;;;;;;;15.95;8.90;;;18.80;99.90;;;;;;5076106;28;20086;-55
2022/06/24 02:13:26;;;;;;;14.23;9.25;;;18.70;99.90;;;;;;5074937;28;20028;-55
2022/06/24 02:15:57;;;;;;;18.23;10.10;;;18.80;99.90;;;;;;5075876;28;20378;-55
2022/06/24 02:18:23;;;;;;;19.05;10.82;;;18.80;99.90;;;;;;5076352;28;20024;-55
2022/06/24 02:20:50;;;;;;;18.60;10.73;;;18.80;99.90;;;;;;5076205;28;20074;-55
2022/06/24 02:23:18;;;;;;;17.13;10.25;;;18.70;99.90;;;;;;5075769;28;20036;-55
2022/06/24 02:25:45;;;;;;;25.38;11.95;;;18.80;99.90;;;;;;5075925;28;20517;-54
2022/06/24 02:28:12;;;;;;;20.35;10.10;;;18.80;99.90;;;;;;5075704;28;20032;-55
2022/06/24 02:30:38;;;;;;;18.67;10.98;;;18.80;99.90;;;;;;5075874;28;20402;-55
2022/06/24 02:33:08;;;;;;;26.75;10.75;;;18.70;99.90;;;;;;5075740;28;20037;-55
2022/06/24 02:35:34;;;;;;;20.13;11.13;;;18.80;99.90;;;;;;5075864;28;20021;-55
2022/06/24 02:38:00;;;;;;;19.58;10.85;;;18.70;99.90;;;;;;5075332;28;20050;-55
2022/06/24 02:43:29;;;;;;;15.25;10.93;;;18.70;99.90;;;;;;5075435;28;20031;-55
2022/06/24 02:46:02;;;;;;;21.90;11.18;;;18.70;99.90;;;;;;5075278;28;20043;-55
2022/06/24 02:48:29;;;;;;;25.70;11.88;;;18.70;99.90;;;;;;5075651;28;20543;-55
2022/06/24 02:50:57;;;;;;;21.38;11.77;;;18.80;99.90;;;;;;5075154;28;20039;-55
2022/06/24 02:53:24;;;;;;;19.08;11.73;;;18.80;99.90;;;;;;5075287;28;20067;-55
2022/06/24 02:55:57;;;;;;;20.50;11.82;;;18.70;99.90;;;;;;5075550;28;20029;-55
2022/06/24 02:58:23;;;;;;;18.85;11.52;;;18.70;99.90;;;;;;5075621;28;20020;-55
2022/06/24 03:00:49;;;;;;;19.17;11.63;;;18.70;99.90;;;;;;5075450;28;20032;-55
2022/06/24 03:03:17;;;;;;;15.75;10.73;;;18.70;99.90;;;;;;5075048;28;20553;-55
2022/06/24 03:05:45;;;;;;;17.90;11.60;;;18.70;99.90;;;;;;5075011;28;20037;-55
2022/06/24 03:08:13;;;;;;;14.50;11.60;;;18.70;99.90;;;;;;5075056;28;20032;-55
2022/06/24 03:10:39;;;;;;;13.32;9.90;;;18.70;99.90;;;;;;5075153;28;20470;-55
2022/06/24 03:13:06;;;;;;;15.43;11.00;;;18.70;99.90;;;;;;5074737;28;20028;-55
2022/06/24 03:15:32;;;;;;;14.10;10.88;;;18.70;99.90;;;;;;5075042;28;20025;-55
2022/06/24 03:17:59;;;;;;;14.27;10.48;;;18.70;99.90;;;;;;5074794;28;20139;-55
2022/06/24 03:20:26;;;;;;;15.68;10.60;;;18.70;99.90;;;;;;5074775;28;20027;-55
2022/06/24 03:22:52;;;;;;;15.93;10.73;;;18.70;99.90;;;;;;5075034;28;20025;-55
2022/06/24 03:25:17;;;;;;;15.88;10.57;;;18.70;99.90;;;;;;5074639;28;20044;-55
2022/06/24 03:27:44;;;;;;;15.85;10.70;;;18.70;99.90;;;;;;5074609;28;20020;-55
2022/06/24 03:30:11;;;;;;;17.75;11.60;;;18.70;99.90;;;;;;5074635;28;20025;-55
2022/06/24 03:32:38;;;;;;;16.13;11.18;;;18.70;99.90;;;;;;5074803;28;20020;-55
2022/06/24 03:35:04;;;;;;;14.27;10.75;;;18.80;99.90;;;;;;5074378;28;20534;-55
2022/06/24 03:37:31;;;;;;;14.95;11.23;;;18.80;99.90;;;;;;5074755;28;20028;-55
2022/06/24 03:39:58;;;;;;;12.65;11.07;;;18.70;99.90;;;;;;5074261;28;20024;-55
2022/06/24 03:42:24;;;;;;;15.68;11.50;;;18.70;99.90;;;;;;5074522;28;20502;-55
2022/06/24 03:44:51;;;;;;;15.55;12.00;;;18.80;99.90;;;;;;5074515;28;20058;-55
2022/06/24 03:47:16;;;;;;;16.13;11.13;;;18.90;99.90;;;;;;5074252;28;20032;-55
2022/06/24 03:49:43;;;;;;;13.70;10.30;;;18.90;99.90;;;;;;5074335;28;20036;-55
2022/06/24 03:52:09;;;;;;;17.30;10.70;;;18.90;99.90;;;;;;5074050;28;20035;-55
2022/06/24 03:54:36;;;;;;;15.07;10.63;;;19.00;99.90;;;;;;5074110;28;20060;-55
2022/06/24 03:57:02;;;;;;;15.20;10.88;;;19.20;99.90;;;;;;5074222;28;20466;-55
2022/06/24 03:59:28;;;;;;;11.70;9.68;;;19.20;99.90;;;;;;5074328;28;20017;-55
2022/06/24 04:01:54;;;;;;;13.23;10.20;;;19.30;99.90;;;;;;5073974;28;20505;-55
2022/06/24 04:04:20;;;;;;;11.32;9.07;;;19.30;99.90;;;;;;5074155;28;20035;-55
2022/06/24 04:06:46;;;;;;;12.38;9.30;;;19.30;99.90;;;;;;5074315;28;20024;-55
2022/06/24 04:09:14;;;;;;;11.50;9.60;;;19.30;99.90;;;;;;5073772;28;20039;-55
2022/06/24 04:11:39;;;;;;;15.95;9.35;;;19.40;99.90;;;;;;5074150;28;20111;-55
2022/06/24 04:14:05;;;;;;;13.25;9.38;;;19.40;99.90;;;;;;5073844;28;20124;-55
2022/06/24 04:16:31;;;;;;;13.25;9.45;;;19.40;99.90;;;;;;5074075;28;20025;-55
2022/06/24 04:18:57;;;;;;;10.15;9.02;;;19.40;99.90;;;;;;5073795;28;20031;-55
2022/06/24 04:21:23;;;;;;;12.27;9.60;;;19.40;99.90;;;;;;5074088;28;20135;-55
2022/06/24 04:23:50;;;;;;;12.82;9.32;;;19.40;99.90;;;;;;5073876;28;20124;-55
2022/06/24 04:26:17;;;;;;;11.93;9.93;;;19.40;99.90;;;;;;5073688;28;20037;-55
2022/06/24 04:28:43;;;;;;;13.65;9.80;;;19.60;99.90;;;;;;5074156;28;20032;-55
2022/06/24 04:31:09;;;;;;;13.52;10.25;;;19.70;99.90;;;;;;5073657;28;20105;-55
2022/06/24 04:33:35;;;;;;;13.55;10.05;;;19.70;99.90;;;;;;5073855;28;20032;-55
2022/06/24 04:36:01;;;;;;;14.25;9.07;;;19.70;99.90;;;;;;5074053;28;20459;-55
2022/06/24 04:38:27;;;;;;;11.10;9.25;;;19.70;99.90;;;;;;5073623;28;20077;-55
2022/06/24 04:40:53;;;;;;;12.10;9.35;;;19.70;99.90;;;;;;5073771;28;20058;-55
2022/06/24 04:43:18;;;;;;;12.50;9.75;;;19.80;99.90;;;;;;5073702;28;20035;-55
2022/06/24 04:45:45;;;;;;;14.10;9.38;;;19.80;99.90;;;;;;5073854;28;20036;-55
2022/06/24 04:48:11;;;;;;;13.70;9.85;;;19.70;99.90;;;;;;5072212;28;20033;-55
2022/06/24 04:50:37;;;;;;;14.07;8.60;;;19.80;99.90;;;;;;5073872;28;20037;-55
2022/06/24 04:53:03;;;;;;;17.88;10.05;;;19.90;99.90;;;;;;5074227;28;20059;-55
2022/06/24 04:55:29;;;;;;;35.08;16.23;;;20.00;99.90;;;;;;5074455;28;20031;-55
2022/06/24 04:57:56;;;;;;;18.83;13.23;;;20.00;99.90;;;;;;5074473;28;20493;-55
2022/06/24 05:00:21;;;;;;;23.85;14.05;;;20.10;99.90;;;;;;5074625;28;20025;-55
2022/06/24 05:02:48;;;;;;;22.08;13.27;;;20.20;99.90;;;;;;5075610;28;20028;-55
2022/06/24 05:05:14;;;;;;;34.28;20.15;;;20.20;99.90;;;;;;5077986;28;20555;-55
2022/06/24 05:07:41;;;;;;;39.50;20.65;;;20.30;99.90;;;;;;5078318;28;20436;-55
2022/06/24 05:10:08;;;;;;;43.40;19.25;;;20.30;99.90;;;;;;5077885;28;20028;-55
2022/06/24 05:12:34;;;;;;;29.95;16.70;;;20.40;99.90;;;;;;5078245;28;20032;-55
2022/06/24 05:15:01;;;;;;;21.90;14.57;;;20.50;99.90;;;;;;5078381;28;20062;-55
2022/06/24 05:17:26;;;;;;;20.85;14.50;;;20.60;99.90;;;;;;5078402;28;20178;-55
2022/06/24 05:19:53;;;;;;;20.38;13.73;;;20.70;99.90;;;;;;5077807;28;20057;-55
2022/06/24 05:22:19;;;;;;;24.33;14.48;;;20.80;99.90;;;;;;5077163;28;20021;-55
2022/06/24 05:24:45;;;;;;;28.83;14.05;;;20.80;99.90;;;;;;5075292;28;20029;-55
2022/06/24 05:27:11;;;;;;;21.88;13.07;;;20.80;99.90;;;;;;5076097;28;20043;-55
2022/06/24 05:29:37;;;;;;;19.55;12.80;;;20.90;99.90;;;;;;5076614;28;20028;-55
2022/06/24 05:32:03;;;;;;;21.67;13.45;;;21.00;99.90;;;;;;5076612;28;20024;-55
2022/06/24 05:34:29;;;;;;;25.35;13.30;;;21.00;99.90;;;;;;5076790;28;20732;-55
2022/06/24 05:36:55;;;;;;;25.20;12.73;;;21.10;99.90;;;;;;5076534;28;20111;-55
2022/06/24 05:39:21;;;;;;;24.23;13.95;;;21.20;99.90;;;;;;5076621;28;20358;-55
2022/06/24 05:41:47;;;;;;;23.08;13.75;;;21.30;99.90;;;;;;5076992;28;20029;-55
2022/06/24 05:44:13;;;;;;;21.65;12.77;;;21.40;99.90;;;;;;5076901;28;20092;-56
2022/06/24 05:46:40;;;;;;;24.10;13.13;;;21.50;99.90;;;;;;5077351;28;20036;-55
2022/06/24 05:49:06;;;;;;;19.85;12.55;;;21.60;99.90;;;;;;5077247;28;20495;-55
2022/06/24 05:51:35;;;;;;;23.48;13.05;;;21.70;99.90;;;;;;5076463;28;20069;-55
2022/06/24 05:56:45;;;;;;;17.60;10.45;;;21.70;99.90;;;;;;5076481;28;20024;-55
2022/06/24 05:59:12;;;;;;;16.27;9.73;;;21.60;99.90;;;;;;5074829;28;20494;-55
2022/06/24 06:01:38;;;;;;;13.20;9.52;;;21.70;99.90;;;;;;5075929;28;20103;-55
2022/06/24 06:04:04;;;;;;;13.80;9.73;;;21.60;99.90;;;;;;5075382;28;20112;-55
2022/06/24 06:06:30;;;;;;;17.08;9.90;;;21.60;99.90;;;;;;5075050;28;20064;-55
2022/06/24 06:08:57;;;;;;;19.10;10.13;;;21.80;99.90;;;;;;5075979;28;20493;-56
2022/06/24 06:11:24;;;;;;;14.88;10.10;;;22.00;99.90;;;;;;5073431;28;20070;-55
2022/06/24 06:13:52;;;;;;;19.38;10.52;;;22.00;99.90;;;;;;5073337;28;20032;-55
2022/06/24 06:16:18;;;;;;;21.25;11.05;;;22.10;99.90;;;;;;5073532;28;20099;-55
2022/06/24 06:18:45;;;;;;;20.95;11.75;;;22.30;99.90;;;;;;5075901;28;20124;-55
2022/06/24 06:21:12;;;;;;;23.02;12.48;;;22.30;99.90;;;;;;5073909;28;20453;-55
2022/06/24 06:23:40;;;;;;;23.40;10.23;;;22.40;99.90;;;;;;5075865;28;20039;-55
2022/06/24 06:26:08;;;;;;;21.75;10.10;;;22.50;99.90;;;;;;5074796;28;20033;-55
2022/06/24 06:28:34;;;;;;;18.30;9.75;;;22.70;99.90;;;;;;5075230;28;20033;-55
2022/06/24 06:31:00;;;;;;;15.23;8.77;;;22.80;99.90;;;;;;5064741;28;20028;-54
2022/06/24 06:33:26;;;;;;;15.98;9.32;;;22.90;99.90;;;;;;5075939;28;20025;-54
2022/06/24 06:36:13;;;;;;;16.45;8.70;;;23.10;99.90;;;;;;5076702;28;20017;-54
2022/06/24 06:38:40;;;;;;;16.27;8.43;;;23.20;99.90;;;;;;5076053;28;20056;-54
2022/06/24 06:41:05;;;;;;;15.35;8.05;;;23.30;99.90;;;;;;5076367;28;20516;-54
2022/06/24 06:43:31;;;;;;;13.23;7.78;;;23.20;99.90;;;;;;5076469;28;20020;-54
2022/06/24 06:45:58;;;;;;;10.75;7.38;;;23.50;99.90;;;;;;5074534;28;20035;-54
2022/06/24 06:48:24;;;;;;;11.07;7.30;;;23.70;99.90;;;;;;5076460;28;20111;-54
2022/06/24 06:50:57;;;;;;;10.10;7.57;;;24.00;99.90;;;;;;5074031;28;20066;-54
2022/06/24 06:53:25;;;;;;;11.38;7.13;;;24.20;99.90;;;;;;5069833;28;20086;-54
2022/06/24 06:55:51;;;;;;;10.52;6.53;;;24.40;99.90;;;;;;5073126;28;20059;-55
2022/06/24 06:58:18;;;;;;;11.23;6.82;;;24.50;99.90;;;;;;5055338;28;20470;-54
2022/06/24 07:00:44;;;;;;;8.38;6.30;;;24.50;99.90;;;;;;5060169;28;20024;-54
2022/06/24 07:03:10;;;;;;;16.42;7.55;;;24.70;98.00;;;;;;5071788;28;20028;-54
2022/06/24 07:05:36;;;;;;;10.02;5.72;;;24.80;99.90;;;;;;5085362;28;20020;-54
2022/06/24 07:08:04;;;;;;;13.40;8.82;;;24.70;90.20;;;;;;5072133;28;20073;-54
2022/06/24 07:10:30;;;;;;;11.98;6.80;;;25.00;92.50;;;;;;5074713;28;20064;-54
2022/06/24 07:12:56;;;;;;;11.60;6.50;;;25.20;83.30;;;;;;5074168;28;20033;-54
2022/06/24 07:15:22;;;;;;;6.47;4.90;;;25.30;90.30;;;;;;5074228;28;20587;-55
2022/06/24 07:17:48;;;;;;;15.02;7.30;;;25.50;76.30;;;;;;5075009;28;20032;-54
2022/06/24 07:20:14;;;;;;;8.32;5.35;;;25.50;80.50;;;;;;5074644;28;20034;-54
2022/06/24 07:22:41;;;;;;;16.58;6.18;;;25.90;74.80;;;;;;5071911;28;20044;-55
2022/06/24 07:25:07;;;;;;;13.55;6.82;;;26.20;84.50;;;;;;5073649;28;20024;-54
2022/06/24 07:27:33;;;;;;;30.30;7.60;;;26.30;71.70;;;;;;5071165;28;20039;-54
2022/06/24 07:29:59;;;;;;;9.10;5.55;;;26.70;72.00;;;;;;5072992;28;20107;-55
2022/06/24 07:32:25;;;;;;;8.63;5.03;;;26.70;63.80;;;;;;5073189;28;20115;-55
2022/06/24 07:34:51;;;;;;;9.70;6.07;;;26.80;63.00;;;;;;5074473;28;20020;-55
2022/06/24 07:37:16;;;;;;;13.93;6.78;;;27.30;70.00;;;;;;5074792;28;20450;-55
2022/06/24 07:39:42;;;;;;;7.97;5.05;;;27.90;72.80;;;;;;5074473;28;20448;-55
2022/06/24 07:42:08;;;;;;;6.43;5.00;;;27.80;56.70;;;;;;5072790;28;20599;-55
2022/06/24 07:44:34;;;;;;;16.38;5.43;;;27.60;56.90;;;;;;5075020;28;20058;-55
2022/06/24 07:47:00;;;;;;;8.85;5.03;;;28.00;56.30;;;;;;5074977;28;20449;-55
2022/06/24 07:49:26;;;;;;;6.20;4.13;;;27.90;57.60;;;;;;5075094;28;20032;-55
2022/06/24 07:51:52;;;;;;;7.55;4.75;;;27.50;57.20;;;;;;5074144;28;20037;-55
2022/06/24 07:54:18;;;;;;;9.50;4.82;;;27.80;57.20;;;;;;5074400;28;20051;-55
2022/06/24 07:56:59;;;;;;;8.25;3.90;;;28.00;57.70;;;;;;5075055;28;20499;-55
2022/06/24 07:59:29;;;;;;;6.15;4.35;;;28.30;55.10;;;;;;5074604;28;20032;-55
2022/06/24 08:01:57;;;;;;;10.60;4.43;;;28.40;56.50;;;;;;5074764;28;20040;-55
2022/06/24 08:04:24;;;;;;;11.70;5.13;;;28.80;52.90;;;;;;5074038;28;20398;-55
2022/06/24 08:06:52;;;;;;;9.75;4.25;;;29.00;55.70;;;;;;5074147;28;20025;-55
2022/06/24 08:09:25;;;;;;;11.50;4.47;;;29.20;53.10;;;;;;5074117;28;20108;-55
2022/06/24 08:11:52;;;;;;;8.32;5.65;;;29.40;52.30;;;;;;5072780;28;20031;-55
2022/06/24 08:14:24;;;;;;;12.50;5.88;;;28.50;50.40;;;;;;5072964;28;20124;-55
2022/06/24 08:16:50;;;;;;;10.88;4.47;;;29.00;49.10;;;;;;5073948;28;20390;-55
2022/06/24 08:19:16;;;;;;;9.27;3.83;;;28.40;51.60;;;;;;5066165;28;20039;-55
2022/06/24 08:21:42;;;;;;;7.75;4.05;;;28.30;47.90;;;;;;5073035;28;20107;-55
2022/06/24 08:24:13;;;;;;;6.68;3.65;;;28.40;44.70;;;;;;5073558;28;20024;-55
2022/06/24 08:26:39;;;;;;;12.70;6.80;;;28.50;46.70;;;;;;5068372;28;20025;-55
2022/06/24 08:29:06;;;;;;;14.35;6.15;;;28.80;47.40;;;;;;5071967;28;20040;-55
2022/06/24 08:31:32;;;;;;;11.27;5.68;;;29.70;51.40;;;;;;5072666;28;20063;-55
2022/06/24 08:33:58;;;;;;;9.10;4.20;;;30.00;47.90;;;;;;5073627;28;20462;-55
2022/06/24 08:36:26;;;;;;;7.18;3.75;;;30.50;48.30;;;;;;5073647;28;20020;-55
2022/06/24 08:38:53;;;;;;;15.45;5.10;;;30.80;45.20;;;;;;5075432;28;20651;-55
2022/06/24 08:41:24;;;;;;;7.25;3.33;;;31.00;45.90;;;;;;5076242;28;20021;-55
2022/06/24 08:43:51;;;;;;;5.60;3.35;;;31.40;46.00;;;;;;5077853;28;20056;-55
2022/06/24 08:46:18;;;;;;;13.40;4.60;;;31.10;39.90;;;;;;5077550;28;20032;-55
2022/06/24 08:48:44;;;;;;;13.98;4.93;;;31.20;44.20;;;;;;5077845;28;20025;-55
2022/06/24 08:51:13;;;;;;;4.32;3.20;;;31.40;40.30;;;;;;5076776;28;20081;-55
2022/06/24 08:53:39;;;;;;;7.55;3.63;;;31.90;43.80;;;;;;5077254;28;20044;-55
2022/06/24 08:56:07;;;;;;;3.45;2.45;;;31.30;40.00;;;;;;5075065;28;20032;-55
2022/06/24 08:58:34;;;;;;;3.85;2.42;;;31.30;38.40;;;;;;5065664;28;20021;-55
2022/06/24 09:01:00;;;;;;;4.32;2.42;;;31.10;38.80;;;;;;5076775;28;20111;-55
2022/06/24 09:03:26;;;;;;;6.53;3.40;;;30.80;37.10;;;;;;5076988;28;20027;-55
2022/06/24 09:05:52;;;;;;;8.68;2.80;;;30.60;35.40;;;;;;5077031;28;20032;-55
2022/06/24 09:08:18;;;;;;;6.03;2.45;;;30.40;35.40;;;;;;5076987;28;20123;-55
2022/06/24 09:11:07;;;;;;;7.32;2.22;;;31.20;37.20;;;;;;5077358;28;20037;-55
2022/06/24 09:13:55;;;;;;;2.58;1.70;;;31.00;33.90;;;;;;5057187;28;20498;-55
2022/06/24 09:16:25;;;;;;;4.32;2.25;;;31.40;37.70;;;;;;5056627;28;20059;-55
2022/06/24 09:18:57;;;;;;;5.72;2.83;;;30.40;36.10;;;;;;5073534;28;20506;-55
2022/06/24 09:21:25;;;;;;;2.88;1.90;;;30.30;38.60;;;;;;5075043;28;20025;-55
2022/06/24 09:24:00;;;;;;;5.97;2.78;;;30.80;36.40;;;;;;5075646;28;20021;-55
2022/06/24 09:26:40;;;;;;;2.88;1.85;;;30.50;37.40;;;;;;5076861;28;20032;-55
2022/06/24 09:29:15;;;;;;;5.03;2.20;;;30.40;35.20;;;;;;5068786;28;20052;-55
2022/06/24 09:31:41;;;;;;;5.93;2.20;;;29.90;37.60;;;;;;5076661;28;20037;-55
2022/06/24 09:34:14;;;;;;;4.57;2.20;;;30.40;38.40;;;;;;5076358;28;20122;-55
2022/06/24 09:36:45;;;;;;;4.63;2.10;;;30.90;37.60;;;;;;5076384;28;20462;-55
2022/06/24 09:39:13;;;;;;;4.00;2.25;;;31.10;37.00;;;;;;5076939;28;20134;-55
2022/06/24 09:41:43;;;;;;;7.50;2.75;;;30.70;37.90;;;;;;5073819;28;20171;-55
2022/06/24 09:44:09;;;;;;;7.80;2.78;;;31.50;41.00;;;;;;5075415;28;20347;-55
2022/06/24 09:46:35;;;;;;;6.35;3.03;;;32.30;42.60;;;;;;5076248;28;20033;-55
2022/06/24 09:49:05;;;;;;;17.05;3.53;;;32.80;37.00;;;;;;5076073;28;20127;-55
2022/06/24 09:51:32;;;;;;;7.60;2.80;;;33.00;37.20;;;;;;5076256;28;20035;-55
2022/06/24 09:53:59;;;;;;;6.28;2.58;;;32.10;36.60;;;;;;5076139;28;20046;-55
2022/06/24 09:56:26;;;;;;;5.72;2.80;;;32.90;38.90;;;;;;5076377;28;20107;-55
2022/06/24 10:01:41;;;;;;;5.05;2.80;;;32.70;36.50;;;;;;5076177;28;20032;-55
2022/06/24 10:04:17;;;;;;;7.55;3.05;;;33.40;36.00;;;;;;5073301;28;20059;-55
2022/06/24 10:06:45;;;;;;;6.53;2.45;;;34.00;38.90;;;;;;5073454;28;20543;-55
2022/06/24 10:09:12;;;;;;;4.07;2.72;;;34.30;36.70;;;;;;5075824;28;20089;-55
2022/06/24 10:11:42;;;;;;;10.55;3.47;;;33.00;35.70;;;;;;5076018;28;20112;-55
2022/06/24 10:14:08;;;;;;;2.83;2.50;;;33.60;37.10;;;;;;5075681;28;20466;-55
2022/06/24 10:16:36;;;;;;;10.13;3.78;;;33.60;37.20;;;;;;5075335;28;20021;-55
2022/06/24 10:19:03;;;;;;;18.40;4.88;;;34.20;39.60;;;;;;5076506;28;20374;-55
2022/06/24 10:21:30;;;;;;;4.78;2.30;;;34.50;38.00;;;;;;5076509;28;20122;-55
2022/06/24 10:23:56;;;;;;;9.13;4.18;;;34.40;38.40;;;;;;5075238;28;20032;-55
2022/06/24 10:26:27;;;;;;;5.13;2.50;;;34.90;37.60;;;;;;5075375;28;20024;-55
2022/06/24 10:29:05;;;;;;;8.48;3.60;;;34.60;34.80;;;;;;5076342;28;20536;-55
2022/06/24 10:31:48;;;;;;;5.75;2.75;;;33.00;36.70;;;;;;5076386;28;20032;-55
2022/06/24 10:34:23;;;;;;;4.80;2.45;;;32.90;37.50;;;;;;5076443;28;20382;-55
2022/06/24 10:36:50;;;;;;;4.88;2.42;;;33.90;36.70;;;;;;5076272;28;20031;-55
2022/06/24 10:39:23;;;;;;;8.30;3.20;;;34.40;38.10;;;;;;5076454;28;20075;-55
2022/06/24 10:42:07;;;;;;;12.48;2.95;;;35.10;39.80;;;;;;5075454;28;20394;-55
2022/06/24 10:44:37;;;;;;;10.05;4.03;;;34.80;34.40;;;;;;5074317;28;20033;-55
2022/06/24 10:47:12;;;;;;;3.75;2.40;;;33.90;36.30;;;;;;5075280;28;20040;-55
2022/06/24 10:49:56;;;;;;;8.55;2.88;;;32.90;36.70;;;;;;5075350;28;20170;-55
2022/06/24 10:52:50;;;;;;;4.78;2.75;;;32.90;35.70;;;;;;5076336;28;20040;-55
2022/06/24 10:57:43;;;;;;;6.00;2.35;;;33.80;34.90;;;;;;5075115;28;20029;-55
2022/06/24 11:00:11;;;;;;;3.28;2.15;;;33.80;36.40;;;;;;5073890;28;20025;-55
2022/06/24 11:02:37;;;;;;;6.22;2.10;;;32.70;34.70;;;;;;5075094;28;20401;-55
2022/06/24 11:05:08;;;;;;;3.45;2.25;;;32.80;35.80;;;;;;5074998;28;20308;-55
2022/06/24 11:07:33;;;;;;;4.40;2.13;;;32.60;36.40;;;;;;5075190;28;20028;-55
2022/06/24 11:10:18;;;;;;;4.63;2.20;;;33.70;38.90;;;;;;5075126;28;20060;-55
2022/06/24 11:12:48;;;;;;;4.68;2.22;;;34.20;36.30;;;;;;5074654;28;20098;-55
2022/06/24 11:15:14;;;;;;;9.75;3.13;;;34.90;36.20;;;;;;5073973;28;20115;-55
2022/06/24 11:17:41;;;;;;;5.80;2.25;;;34.90;33.70;;;;;;5073722;28;20028;-55
2022/06/24 11:20:09;;;;;;;9.30;2.63;;;35.00;33.90;;;;;;5071009;28;20024;-55
2022/06/24 11:22:47;;;;;;;3.08;1.98;;;35.30;34.60;;;;;;5074794;28;20033;-55
2022/06/24 11:25:16;;;;;;;7.60;3.15;;;35.40;32.50;;;;;;5074479;28;20302;-55
2022/06/24 11:27:42;;;;;;;2.60;2.03;;;35.50;33.10;;;;;;5074368;28;20540;-55
2022/06/24 11:30:09;;;;;;;9.20;2.97;;;36.00;34.10;;;;;;5074321;28;20104;-55
2022/06/24 11:32:57;;;;;;;7.65;3.35;;;36.10;33.40;;;;;;5074531;28;20441;-55
2022/06/24 11:35:23;;;;;;;9.55;2.90;;;35.40;32.90;;;;;;5074221;28;20032;-55
2022/06/24 11:37:50;;;;;;;16.02;3.63;;;35.70;34.90;;;;;;5074513;28;20056;-55
2022/06/24 11:40:27;;;;;;;6.47;2.10;;;34.70;32.30;;;;;;5073195;28;20044;-55
2022/06/24 11:42:54;;;;;;;7.13;2.58;;;33.80;33.50;;;;;;5070439;28;20024;-55
2022/06/24 11:45:37;;;;;;;11.40;2.63;;;34.80;37.10;;;;;;5071757;28;20033;-55
2022/06/24 11:48:05;;;;;;;7.18;2.20;;;35.70;37.50;;;;;;5074921;28;20033;-55
2022/06/24 11:50:34;;;;;;;4.68;2.45;;;35.80;38.00;;;;;;5074980;28;20036;-55
2022/06/24 11:53:02;;;;;;;7.93;3.08;;;36.00;34.50;;;;;;5074297;28;20063;-55
2022/06/24 11:55:32;;;;;;;8.50;3.00;;;36.50;35.90;;;;;;5074803;28;20478;-55
2022/06/24 11:58:00;;;;;;;14.70;3.25;;;36.50;35.40;;;;;;5074675;28;20032;-55
2022/06/24 12:00:29;;;;;;;8.10;3.15;;;36.60;33.20;;;;;;5074912;28;20025;-55
2022/06/24 12:02:56;;;;;;;9.05;3.50;;;36.30;34.40;;;;;;5073154;28;20032;-55
2022/06/24 12:05:30;;;;;;;17.25;3.83;;;36.40;33.20;;;;;;5074601;28;20024;-55
2022/06/24 12:07:58;;;;;;;20.25;4.40;;;36.30;33.60;;;;;;5074824;28;20036;-55
2022/06/24 12:10:24;;;;;;;12.98;3.55;;;36.00;35.40;;;;;;5074676;28;20028;-55
2022/06/24 12:12:56;;;;;;;16.73;4.00;;;34.60;33.30;;;;;;5074161;28;20032;-55
2022/06/24 12:15:51;;;;;;;10.98;3.47;;;34.50;37.00;;;;;;5073945;28;20025;-55
2022/06/24 12:18:18;;;;;;;12.05;3.95;;;35.20;38.80;;;;;;5074348;28;20535;-55
2022/06/24 12:20:58;;;;;;;16.02;5.32;;;35.60;34.70;;;;;;5074118;28;20016;-55
2022/06/24 12:23:25;;;;;;;16.25;4.82;;;35.80;35.70;;;;;;5074071;28;20035;-55
2022/06/24 12:25:51;;;;;;;12.75;3.85;;;35.90;36.00;;;;;;5073997;28;20025;-55
2022/06/24 12:28:17;;;;;;;14.40;4.65;;;36.10;35.80;;;;;;5073858;28;20028;-55
2022/06/24 12:31:04;;;;;;;18.83;5.35;;;35.10;34.10;;;;;;5071945;28;20102;-55
2022/06/24 12:33:33;;;;;;;18.25;4.60;;;34.90;35.20;;;;;;5073634;28;20527;-55
2022/06/24 12:36:16;;;;;;;29.77;7.27;;;35.00;35.80;;;;;;5073291;28;20458;-55
2022/06/24 12:39:05;;;;;;;21.52;5.30;;;34.70;35.30;;;;;;5073354;28;20337;-55
2022/06/24 12:41:45;;;;;;;17.63;5.07;;;34.80;37.90;;;;;;5073835;28;20036;-55
2022/06/24 12:44:11;;;;;;;17.30;5.32;;;35.60;36.80;;;;;;5073382;28;20032;-55
2022/06/24 12:46:37;;;;;;;24.85;6.57;;;35.80;35.40;;;;;;5073571;28;20125;-55
2022/06/24 12:51:57;;;;;;;11.40;3.20;;;35.90;32.90;;;;;;5073674;28;20049;-55
2022/06/24 12:54:23;;;;;;;6.97;2.60;;;34.90;33.60;;;;;;5074289;28;20490;-55
2022/06/24 12:56:49;;;;;;;11.05;4.20;;;34.40;34.60;;;;;;5074457;28;20109;-55
2022/06/24 12:59:16;;;;;;;16.33;4.05;;;34.40;35.90;;;;;;5074133;28;20217;-55
2022/06/24 13:01:45;;;;;;;9.45;3.28;;;34.20;37.40;;;;;;5073680;28;20028;-55